createdAt,value
2022-07-26T00:00:24.492Z,19.08
2022-07-26T00:02:51.321Z,16.00
2022-07-26T00:05:18.697Z,14.98
2022-07-26T00:07:46.109Z,10.48
2022-07-26T00:10:14.304Z,15.38
2022-07-26T00:12:41.291Z,12.02
2022-07-26T00:15:10.547Z,11.50
2022-07-26T00:17:38.223Z,17.02
2022-07-26T00:20:05.610Z,14.55
2022-07-26T00:22:35.240Z,15.32
2022-07-26T00:25:04.445Z,18.13
2022-07-26T00:27:31.353Z,19.60
2022-07-26T00:29:58.111Z,17.25
2022-07-26T00:32:24.949Z,15.55
2022-07-26T00:34:52.433Z,14.45
2022-07-26T00:37:21.048Z,12.40
2022-07-26T00:39:48.708Z,13.20
2022-07-26T00:42:15.630Z,12.75
2022-07-26T00:44:45.162Z,12.63
2022-07-26T00:47:12.664Z,15.93
2022-07-26T00:49:39.562Z,14.40
2022-07-26T00:52:07.152Z,10.57
2022-07-26T00:54:34.343Z,11.73
2022-07-26T00:57:01.228Z,13.57
2022-07-26T00:59:28.845Z,9.77
2022-07-26T01:01:56.183Z,13.20
2022-07-26T01:04:23.243Z,12.10
2022-07-26T01:06:50.195Z,9.68
2022-07-26T01:09:17.134Z,10.35
2022-07-26T01:11:43.943Z,11.30
2022-07-26T01:14:11.124Z,12.30
2022-07-26T01:16:38.344Z,11.77
2022-07-26T01:19:05.218Z,10.80
2022-07-26T01:21:33.584Z,10.45
2022-07-26T01:24:00.561Z,9.68
2022-07-26T01:26:27.408Z,8.85
2022-07-26T01:28:54.380Z,9.68
2022-07-26T01:31:21.388Z,10.52
2022-07-26T01:33:49.456Z,13.05
2022-07-26T01:36:16.752Z,8.20
2022-07-26T01:38:43.803Z,9.68
2022-07-26T01:41:11.856Z,10.25
2022-07-26T01:43:39.085Z,8.10
2022-07-26T01:46:09.489Z,8.68
2022-07-26T01:48:36.662Z,9.55
2022-07-26T01:51:04.075Z,7.50
2022-07-26T01:53:31.095Z,7.60
2022-07-26T01:55:58.475Z,8.68
2022-07-26T01:58:25.373Z,6.28
2022-07-26T02:00:52.420Z,8.73
2022-07-26T02:03:19.208Z,7.63
2022-07-26T02:05:46.055Z,11.45
2022-07-26T02:08:12.837Z,7.03
2022-07-26T02:10:58.433Z,9.95
2022-07-26T02:13:25.433Z,8.30
2022-07-26T02:15:52.366Z,9.38
2022-07-26T02:18:19.196Z,9.05
2022-07-26T02:20:46.059Z,7.10
2022-07-26T02:23:13.304Z,9.70
2022-07-26T02:25:40.116Z,8.23
2022-07-26T02:28:06.954Z,11.70
2022-07-26T02:30:33.947Z,10.80
2022-07-26T02:33:00.897Z,7.47
2022-07-26T02:35:27.704Z,9.10
2022-07-26T02:37:54.576Z,11.90
2022-07-26T02:40:21.388Z,12.68
2022-07-26T02:42:48.182Z,8.68
2022-07-26T02:45:14.944Z,9.70
2022-07-26T02:47:49.635Z,8.77
2022-07-26T02:50:18.405Z,9.30
2022-07-26T02:52:47.972Z,8.38
2022-07-26T02:55:16.593Z,6.70
2022-07-26T02:57:46.563Z,6.50
2022-07-26T03:00:16.082Z,8.68
2022-07-26T03:02:43.211Z,7.97
2022-07-26T03:05:10.665Z,7.28
2022-07-26T03:07:37.611Z,8.68
2022-07-26T03:10:05.265Z,10.90
2022-07-26T03:12:32.005Z,6.72
2022-07-26T03:14:58.787Z,6.32
2022-07-26T03:17:25.587Z,9.25
2022-07-26T03:19:52.417Z,8.13
2022-07-26T03:22:19.233Z,9.68
2022-07-26T03:24:45.976Z,6.90
2022-07-26T03:27:12.755Z,7.78
2022-07-26T03:29:39.505Z,10.52
2022-07-26T03:32:06.823Z,8.27
2022-07-26T03:34:33.697Z,9.15
2022-07-26T03:37:00.441Z,7.93
2022-07-26T03:39:27.196Z,9.68
2022-07-26T03:41:53.940Z,9.05
2022-07-26T03:44:20.698Z,10.27
2022-07-26T03:46:47.434Z,7.97
2022-07-26T03:49:16.864Z,10.65
2022-07-26T03:51:44.052Z,8.77
2022-07-26T03:54:11.296Z,10.25
2022-07-26T03:56:39.047Z,10.75
2022-07-26T03:59:08.597Z,8.07
2022-07-26T04:01:37.574Z,9.93
2022-07-26T04:04:04.892Z,10.38
2022-07-26T04:06:31.709Z,8.88
2022-07-26T04:08:58.445Z,10.45
2022-07-26T04:11:27.712Z,8.93
2022-07-26T04:13:55.975Z,9.40
2022-07-26T04:16:23.195Z,9.43
2022-07-26T04:18:50.031Z,8.50
2022-07-26T04:21:17.269Z,10.48
2022-07-26T04:23:47.837Z,8.25
2022-07-26T04:26:18.062Z,8.88
2022-07-26T04:28:44.916Z,10.85
2022-07-26T04:31:12.322Z,11.23
2022-07-26T04:33:39.156Z,9.10
2022-07-26T04:36:06.176Z,10.50
2022-07-26T04:38:32.975Z,8.93
2022-07-26T04:41:00.014Z,10.95
2022-07-26T04:43:26.911Z,9.23
2022-07-26T04:45:53.776Z,12.05
2022-07-26T04:48:20.840Z,8.23
2022-07-26T04:50:47.640Z,10.18
2022-07-26T04:53:14.639Z,11.32
2022-07-26T04:55:42.059Z,10.35
2022-07-26T04:58:09.873Z,11.52
2022-07-26T05:00:56.584Z,12.50
2022-07-26T05:03:25.258Z,8.82
2022-07-26T05:05:52.188Z,10.68
2022-07-26T05:08:19.184Z,9.68
2022-07-26T05:10:46.228Z,11.07
2022-07-26T05:13:13.044Z,10.30
2022-07-26T05:15:39.804Z,11.07
2022-07-26T05:18:13.479Z,9.88
2022-07-26T05:20:40.676Z,9.77
2022-07-26T05:23:07.994Z,11.13
2022-07-26T05:25:35.001Z,9.65
2022-07-26T05:28:01.827Z,9.95
2022-07-26T05:30:28.767Z,12.55
2022-07-26T05:32:55.608Z,9.68
2022-07-26T05:35:22.410Z,9.82
2022-07-26T05:37:49.393Z,8.75
2022-07-26T05:40:16.744Z,11.63
2022-07-26T05:42:43.471Z,14.23
2022-07-26T05:45:10.563Z,10.85
2022-07-26T05:47:37.373Z,11.43
2022-07-26T05:50:05.651Z,9.35
2022-07-26T05:52:32.771Z,10.40
2022-07-26T05:54:59.570Z,8.57
2022-07-26T05:57:26.540Z,7.47
2022-07-26T05:59:53.316Z,11.90
2022-07-26T06:02:20.216Z,7.45
2022-07-26T06:04:47.583Z,10.60
2022-07-26T06:07:14.949Z,7.03
2022-07-26T06:09:41.897Z,9.35
2022-07-26T06:12:08.835Z,8.57
2022-07-26T06:14:35.898Z,9.18
2022-07-26T06:17:04.376Z,10.15
2022-07-26T06:19:31.449Z,14.27
2022-07-26T06:21:58.225Z,13.50
2022-07-26T06:24:25.045Z,14.57
2022-07-26T06:26:56.855Z,9.10
2022-07-26T06:29:32.101Z,8.82
2022-07-26T06:31:59.565Z,10.52
2022-07-26T06:34:26.453Z,9.23
2022-07-26T06:36:53.254Z,7.47
2022-07-26T06:39:20.212Z,14.25
2022-07-26T06:41:47.055Z,10.32
2022-07-26T06:44:13.850Z,6.68
2022-07-26T06:46:40.769Z,6.57
2022-07-26T06:49:07.730Z,9.00
2022-07-26T06:51:34.646Z,6.93
2022-07-26T06:54:01.682Z,8.48
2022-07-26T06:56:28.462Z,5.80
2022-07-26T06:58:56.819Z,8.40
2022-07-26T07:01:57.780Z,7.93
2022-07-26T07:04:11.064Z,13.75
2022-07-26T07:06:38.160Z,6.00
2022-07-26T07:09:05.909Z,8.68
2022-07-26T07:11:35.628Z,7.45
2022-07-26T07:14:03.373Z,8.68
2022-07-26T07:16:30.497Z,5.85
2022-07-26T07:18:57.474Z,7.80
2022-07-26T07:21:24.235Z,6.32
2022-07-26T07:23:51.059Z,7.60
2022-07-26T07:26:20.147Z,7.38
2022-07-26T07:28:47.014Z,7.63
2022-07-26T07:31:15.730Z,8.57
2022-07-26T07:33:50.356Z,8.75
2022-07-26T07:36:20.859Z,8.60
2022-07-26T07:38:48.670Z,8.63
2022-07-26T07:41:16.424Z,6.80
2022-07-26T07:43:43.189Z,6.20
2022-07-26T07:46:10.172Z,7.25
2022-07-26T07:48:47.609Z,9.85
2022-07-26T07:51:15.072Z,7.03
2022-07-26T07:53:42.908Z,6.55
2022-07-26T07:56:09.738Z,6.95
2022-07-26T07:58:36.517Z,7.75
2022-07-26T08:01:03.513Z,5.70
2022-07-26T08:03:38.474Z,7.00
2022-07-26T08:06:08.646Z,7.13
2022-07-26T08:08:36.975Z,7.63
2022-07-26T08:11:05.196Z,6.70
2022-07-26T08:13:34.927Z,6.40
2022-07-26T08:16:02.009Z,9.52
2022-07-26T08:18:29.112Z,7.85
2022-07-26T08:20:56.851Z,8.50
2022-07-26T08:23:23.888Z,7.03
2022-07-26T08:26:00.849Z,8.35
2022-07-26T08:28:48.351Z,11.02
2022-07-26T08:31:16.692Z,7.50
2022-07-26T08:33:46.321Z,6.72
2022-07-26T08:36:17.237Z,7.03
2022-07-26T08:41:11.452Z,6.72
2022-07-26T08:43:47.413Z,5.80
2022-07-26T08:46:24.873Z,6.95
2022-07-26T08:48:53.496Z,5.93
2022-07-26T08:51:24.320Z,7.07
2022-07-26T08:53:54.153Z,8.35
2022-07-26T08:56:20.938Z,6.57
2022-07-26T08:58:47.734Z,7.82
2022-07-26T09:01:15.094Z,5.75
2022-07-26T09:03:43.494Z,6.22
2022-07-26T09:06:16.436Z,9.10
2022-07-26T09:08:44.807Z,5.03
2022-07-26T09:11:23.748Z,4.53
2022-07-26T09:13:52.617Z,6.20
2022-07-26T09:16:19.447Z,4.85
2022-07-26T09:18:46.217Z,6.80
2022-07-26T09:21:33.732Z,5.40
2022-07-26T09:24:00.719Z,4.82
2022-07-26T09:26:28.200Z,6.13
2022-07-26T09:29:11.213Z,5.60
2022-07-26T09:31:39.540Z,6.32
2022-07-26T09:34:07.593Z,5.57
2022-07-26T09:36:53.647Z,7.97
2022-07-26T09:39:22.720Z,6.53
2022-07-26T09:42:27.301Z,8.00
2022-07-26T09:44:56.718Z,5.55
2022-07-26T09:48:04.143Z,7.80
2022-07-26T09:50:33.561Z,6.65
2022-07-26T09:53:04.680Z,5.43
2022-07-26T09:55:40.889Z,5.75
2022-07-26T09:58:14.025Z,6.72
2022-07-26T10:00:41.236Z,7.63
2022-07-26T10:03:08.072Z,6.05
2022-07-26T10:05:36.083Z,5.55
2022-07-26T10:08:03.565Z,5.75
2022-07-26T10:10:31.773Z,5.10
2022-07-26T10:13:02.815Z,5.30
2022-07-26T10:15:43.743Z,3.72
2022-07-26T10:18:39.233Z,7.88
2022-07-26T10:21:21.337Z,6.78
2022-07-26T10:23:53.332Z,4.05
2022-07-26T10:26:32.202Z,4.90
2022-07-26T10:29:17.266Z,4.70
2022-07-26T10:31:45.993Z,3.97
2022-07-26T10:34:34.312Z,4.32
2022-07-26T10:37:03.747Z,5.80
2022-07-26T10:39:30.516Z,4.37
2022-07-26T10:42:02.223Z,5.45
2022-07-26T10:44:31.466Z,2.88
2022-07-26T10:47:02.806Z,5.60
2022-07-26T10:49:35.600Z,6.25
2022-07-26T10:52:15.098Z,4.20
2022-07-26T10:54:56.909Z,4.50
2022-07-26T10:57:28.673Z,5.30
2022-07-26T10:59:57.545Z,6.05
2022-07-26T11:02:27.945Z,3.03
2022-07-26T11:05:29.909Z,3.72
2022-07-26T11:08:08.362Z,4.65
2022-07-26T11:10:40.588Z,7.28
2022-07-26T11:13:19.024Z,4.82
2022-07-26T11:15:48.923Z,2.88
2022-07-26T11:18:21.182Z,3.17
2022-07-26T11:20:51.183Z,4.55
2022-07-26T11:23:24.149Z,3.58
2022-07-26T11:26:02.901Z,4.75
2022-07-26T11:28:29.695Z,4.13
2022-07-26T11:30:58.693Z,4.30
2022-07-26T11:33:36.690Z,3.33
2022-07-26T11:36:05.063Z,3.17
2022-07-26T11:38:48.654Z,4.30
2022-07-26T11:41:19.805Z,5.28
2022-07-26T11:43:46.768Z,4.32
2022-07-26T11:46:13.632Z,2.38
2022-07-26T11:48:54.903Z,3.33
2022-07-26T11:51:23.694Z,4.78
2022-07-26T11:53:59.457Z,4.57
2022-07-26T11:56:28.506Z,4.72
2022-07-26T11:58:59.654Z,3.80
2022-07-26T12:01:27.374Z,2.50
2022-07-26T12:03:55.531Z,4.70
2022-07-26T12:06:27.311Z,4.25
2022-07-26T12:08:58.426Z,4.22
2022-07-26T12:11:37.697Z,4.18
2022-07-26T12:14:04.727Z,2.40
2022-07-26T12:16:44.322Z,3.22
2022-07-26T12:19:31.979Z,3.95
2022-07-26T12:22:12.906Z,3.80
2022-07-26T12:24:45.968Z,5.43
2022-07-26T12:27:21.622Z,3.80
2022-07-26T12:29:56.935Z,4.47
2022-07-26T12:32:32.152Z,3.83
2022-07-26T12:35:03.469Z,3.90
2022-07-26T12:37:40.110Z,2.97
2022-07-26T12:40:16.601Z,6.45
2022-07-26T12:42:49.397Z,4.18
2022-07-26T12:45:18.721Z,3.35
2022-07-26T12:47:47.814Z,4.47
2022-07-26T12:50:16.248Z,2.90
2022-07-26T12:52:44.221Z,2.40
2022-07-26T12:55:16.412Z,4.63
2022-07-26T12:57:47.402Z,6.53
2022-07-26T13:00:18.201Z,3.22
2022-07-26T13:02:45.812Z,3.60
2022-07-26T13:05:13.385Z,6.85
2022-07-26T13:07:40.720Z,2.80
2022-07-26T13:10:31.801Z,3.33
2022-07-26T13:12:55.977Z,3.13
2022-07-26T13:15:22.747Z,3.38
2022-07-26T13:17:51.585Z,3.13
2022-07-26T13:20:18.415Z,4.07
2022-07-26T13:22:45.239Z,4.13
2022-07-26T13:25:12.633Z,5.03
2022-07-26T13:27:44.320Z,3.88
2022-07-26T13:30:12.343Z,3.20
2022-07-26T13:32:39.126Z,3.30
2022-07-26T13:35:06.260Z,4.68
2022-07-26T13:37:33.018Z,4.75
2022-07-26T13:39:59.735Z,2.88
2022-07-26T13:42:26.503Z,2.97
2022-07-26T13:44:53.221Z,4.07
2022-07-26T13:47:20.063Z,3.55
2022-07-26T13:49:46.915Z,3.25
2022-07-26T13:52:16.740Z,3.25
2022-07-26T13:54:43.900Z,3.50
2022-07-26T13:57:10.654Z,3.75
2022-07-26T13:59:37.411Z,2.63
2022-07-26T14:02:05.135Z,7.82
2022-07-26T14:04:32.134Z,3.70
2022-07-26T14:06:58.918Z,2.20
2022-07-26T14:09:25.764Z,3.28
2022-07-26T14:11:52.601Z,4.00
2022-07-26T14:14:19.533Z,3.08
2022-07-26T14:16:49.306Z,4.25
2022-07-26T14:19:16.546Z,4.70
2022-07-26T14:21:58.960Z,3.95
2022-07-26T14:24:27.540Z,3.17
2022-07-26T14:26:58.914Z,6.05
2022-07-26T14:29:26.243Z,2.95
2022-07-26T14:31:53.249Z,5.90
2022-07-26T14:34:20.123Z,4.32
2022-07-26T14:36:46.949Z,5.32
2022-07-26T14:39:13.716Z,3.97
2022-07-26T14:41:40.581Z,4.53
2022-07-26T14:44:07.592Z,4.05
2022-07-26T14:46:34.528Z,3.15
2022-07-26T14:49:01.375Z,7.07
2022-07-26T14:51:28.192Z,5.65
2022-07-26T14:53:54.972Z,3.33
2022-07-26T14:56:21.932Z,3.50
2022-07-26T14:58:48.700Z,2.97
2022-07-26T15:01:16.674Z,4.53
2022-07-26T15:03:43.491Z,3.53
2022-07-26T15:06:10.292Z,4.47
2022-07-26T15:08:37.098Z,3.83
2022-07-26T15:11:05.525Z,7.22
2022-07-26T15:13:32.287Z,6.25
2022-07-26T15:15:59.178Z,5.63
2022-07-26T15:18:26.483Z,3.22
2022-07-26T15:20:53.576Z,2.88
2022-07-26T15:23:20.337Z,3.80
2022-07-26T15:25:48.587Z,3.78
2022-07-26T15:28:15.768Z,4.30
2022-07-26T15:30:43.071Z,4.35
2022-07-26T15:33:09.964Z,5.82
2022-07-26T15:35:37.100Z,3.72
2022-07-26T15:38:04.695Z,4.60
2022-07-26T15:40:31.566Z,4.18
2022-07-26T15:42:58.693Z,4.47
2022-07-26T15:45:26.023Z,4.78
2022-07-26T15:47:55.965Z,5.10
2022-07-26T15:50:24.984Z,3.60
2022-07-26T15:52:51.885Z,3.72
2022-07-26T15:55:19.527Z,4.57
2022-07-26T15:57:46.831Z,3.60
2022-07-26T16:00:14.379Z,5.40
2022-07-26T16:02:41.364Z,7.22
2022-07-26T16:05:09.412Z,3.75
2022-07-26T16:07:36.261Z,4.43
2022-07-26T16:10:03.989Z,3.70
2022-07-26T16:12:30.808Z,4.53
2022-07-26T16:14:57.604Z,4.22
2022-07-26T16:17:25.256Z,5.47
2022-07-26T16:19:53.183Z,6.82
2022-07-26T16:22:20.123Z,4.15
2022-07-26T16:24:46.877Z,6.57
2022-07-26T16:27:13.677Z,8.43
2022-07-26T16:29:40.491Z,7.18
2022-07-26T16:32:09.207Z,3.83
2022-07-26T16:34:36.372Z,5.45
2022-07-26T16:37:04.325Z,8.27
2022-07-26T16:39:31.175Z,6.32
2022-07-26T16:42:00.886Z,3.17
2022-07-26T16:44:30.087Z,5.70
2022-07-26T16:46:57.248Z,3.97
2022-07-26T16:49:24.361Z,3.20
2022-07-26T16:51:51.172Z,3.53
2022-07-26T16:54:18.021Z,5.38
2022-07-26T16:56:44.909Z,4.28
2022-07-26T16:59:12.198Z,4.57
2022-07-26T17:01:39.143Z,5.38
2022-07-26T17:04:06.084Z,4.20
2022-07-26T17:06:32.843Z,4.07
2022-07-26T17:08:59.571Z,4.70
2022-07-26T17:11:26.471Z,6.00
2022-07-26T17:13:53.485Z,6.28
2022-07-26T17:16:21.383Z,4.32
2022-07-26T17:18:52.052Z,3.20
2022-07-26T17:21:18.839Z,3.45
2022-07-26T17:23:45.639Z,3.53
2022-07-26T17:26:12.598Z,3.65
2022-07-26T17:28:39.332Z,3.65
2022-07-26T17:31:06.226Z,4.75
2022-07-26T17:33:33.134Z,6.82
2022-07-26T17:36:03.337Z,5.22
2022-07-26T17:38:31.317Z,4.35
2022-07-26T17:40:58.048Z,4.95
2022-07-26T17:43:25.464Z,3.60
2022-07-26T17:46:04.004Z,5.85
2022-07-26T17:48:30.863Z,4.57
2022-07-26T17:50:57.656Z,3.17
2022-07-26T17:53:33.928Z,3.90
2022-07-26T17:56:01.993Z,3.97
2022-07-26T17:58:28.840Z,2.80
2022-07-26T18:00:55.733Z,3.95
2022-07-26T18:03:23.194Z,2.72
2022-07-26T18:05:50.791Z,6.38
2022-07-26T18:08:17.870Z,3.83
2022-07-26T18:10:50.587Z,3.45
2022-07-26T18:13:17.948Z,4.82
2022-07-26T18:15:45.140Z,4.63
2022-07-26T18:18:12.031Z,3.08
2022-07-26T18:20:38.812Z,5.03
2022-07-26T18:23:05.917Z,3.10
2022-07-26T18:25:32.798Z,5.30
2022-07-26T18:28:04.764Z,3.33
2022-07-26T18:30:33.689Z,5.00
2022-07-26T18:33:00.715Z,4.05
2022-07-26T18:35:28.231Z,5.70
2022-07-26T18:37:55.194Z,6.75
2022-07-26T18:40:25.893Z,5.05
2022-07-26T18:42:53.088Z,4.00
2022-07-26T18:45:20.263Z,5.45
2022-07-26T18:47:47.059Z,6.35
2022-07-26T18:50:17.074Z,5.25
2022-07-26T18:52:45.094Z,3.88
2022-07-26T18:55:13.553Z,4.97
2022-07-26T18:57:42.467Z,5.80
2022-07-26T19:00:12.533Z,5.45
2022-07-26T19:02:39.419Z,4.90
2022-07-26T19:05:06.544Z,4.90
2022-07-26T19:07:34.170Z,4.72
2022-07-26T19:10:00.935Z,5.57
2022-07-26T19:12:28.285Z,3.95
2022-07-26T19:14:55.208Z,3.38
2022-07-26T19:17:22.214Z,3.80
2022-07-26T19:19:49.138Z,4.68
2022-07-26T19:22:15.870Z,4.43
2022-07-26T19:24:42.974Z,4.40
2022-07-26T19:27:09.797Z,4.55
2022-07-26T19:29:37.290Z,5.93
2022-07-26T19:32:04.893Z,3.97
2022-07-26T19:34:31.629Z,3.75
2022-07-26T19:36:58.598Z,4.50
2022-07-26T19:39:25.465Z,5.20
2022-07-26T19:41:52.756Z,4.15
2022-07-26T19:44:19.553Z,3.10
2022-07-26T19:46:47.465Z,4.50
2022-07-26T19:49:16.135Z,4.93
2022-07-26T19:51:43.820Z,5.07
2022-07-26T19:54:10.655Z,4.07
2022-07-26T19:56:37.548Z,4.53
2022-07-26T19:59:04.328Z,3.80
2022-07-26T20:01:31.217Z,4.28
2022-07-26T20:03:58.135Z,4.40
2022-07-26T20:06:24.979Z,4.18
2022-07-26T20:08:52.249Z,7.93
2022-07-26T20:11:22.483Z,4.32
2022-07-26T20:13:49.768Z,4.88
2022-07-26T20:16:16.742Z,6.18
2022-07-26T20:18:43.578Z,4.00
2022-07-26T20:21:10.366Z,4.03
2022-07-26T20:23:37.075Z,4.28
2022-07-26T20:26:03.910Z,4.88
2022-07-26T20:28:30.833Z,5.82
2022-07-26T20:30:57.825Z,5.10
2022-07-26T20:33:25.429Z,4.20
2022-07-26T20:35:55.123Z,4.10
2022-07-26T20:38:22.533Z,4.13
2022-07-26T20:40:49.520Z,5.00
2022-07-26T20:43:17.082Z,4.32
2022-07-26T20:45:43.994Z,6.32
2022-07-26T20:48:10.840Z,4.22
2022-07-26T20:50:38.087Z,6.05
2022-07-26T20:53:04.828Z,3.70
2022-07-26T20:55:31.774Z,3.30
2022-07-26T20:57:58.619Z,4.07
2022-07-26T21:00:26.444Z,5.20
2022-07-26T21:02:57.953Z,6.03
2022-07-26T21:05:28.691Z,5.07
2022-07-26T21:07:59.889Z,4.15
2022-07-26T21:10:28.944Z,3.75
2022-07-26T21:12:57.448Z,5.00
2022-07-26T21:15:24.352Z,4.53
2022-07-26T21:17:52.477Z,4.50
2022-07-26T21:20:19.580Z,6.93
2022-07-26T21:22:46.379Z,4.40
2022-07-26T21:25:13.803Z,5.53
2022-07-26T21:27:40.621Z,5.35
2022-07-26T21:30:08.249Z,6.43
2022-07-26T21:32:35.322Z,4.97
2022-07-26T21:35:02.275Z,4.40
2022-07-26T21:37:29.140Z,7.50
2022-07-26T21:39:55.940Z,5.55
2022-07-26T21:42:27.602Z,5.63
2022-07-26T21:44:54.344Z,7.47
2022-07-26T21:47:21.153Z,5.88
2022-07-26T21:49:47.924Z,7.28
2022-07-26T21:52:14.691Z,5.43
2022-07-26T21:54:41.568Z,4.85
2022-07-26T21:57:08.420Z,5.60
2022-07-26T21:59:35.815Z,5.47
2022-07-26T22:02:02.671Z,6.28
2022-07-26T22:04:30.786Z,6.03
2022-07-26T22:06:57.710Z,6.28
2022-07-26T22:09:24.564Z,4.55
2022-07-26T22:11:51.317Z,5.28
2022-07-26T22:14:18.136Z,5.03
2022-07-26T22:16:47.576Z,4.78
2022-07-26T22:19:14.936Z,4.60
2022-07-26T22:21:41.689Z,5.72
2022-07-26T22:24:08.680Z,4.75
2022-07-26T22:26:36.138Z,4.70
2022-07-26T22:29:03.073Z,4.28
2022-07-26T22:31:29.921Z,4.47
2022-07-26T22:33:56.696Z,4.70
2022-07-26T22:36:23.448Z,5.60
2022-07-26T22:38:50.256Z,5.10
2022-07-26T22:41:17.062Z,4.63
2022-07-26T22:43:43.909Z,4.28
2022-07-26T22:46:10.698Z,4.70
2022-07-26T22:48:38.930Z,5.03
2022-07-26T22:51:06.779Z,4.53
2022-07-26T22:53:34.650Z,4.32
2022-07-26T22:56:01.380Z,5.88
2022-07-26T22:58:28.132Z,5.03
2022-07-26T23:00:54.932Z,4.45
2022-07-26T23:03:21.909Z,4.22
2022-07-26T23:05:50.034Z,4.30
2022-07-26T23:11:04.860Z,5.15
2022-07-26T23:13:32.056Z,6.15
2022-07-26T23:16:01.203Z,5.30
2022-07-26T23:18:30.057Z,4.23
2022-07-26T23:20:57.013Z,4.50
2022-07-26T23:23:25.006Z,5.47
2022-07-26T23:25:56.220Z,4.40
2022-07-26T23:28:36.014Z,3.97
2022-07-26T23:31:08.845Z,4.70
2022-07-26T23:33:52.850Z,4.40
2022-07-26T23:36:30.043Z,4.63
2022-07-26T23:38:58.947Z,4.28
2022-07-26T23:41:26.690Z,4.25
2022-07-26T23:43:54.422Z,4.00
2022-07-26T23:46:22.059Z,6.38
2022-07-26T23:48:49.394Z,3.90
2022-07-26T23:51:16.324Z,4.15
2022-07-26T23:53:43.117Z,4.25
2022-07-26T23:56:09.904Z,3.83
2022-07-26T23:58:37.494Z,4.95
